Time,TemperatureF,DewpointF,PressureIn,WindDirection,WindDirectionDegrees,WindSpeedMPH,WindSpeedGustMPH,Humidity,HourlyPrecipIn,Conditions,Clouds,dailyrainin,SoftwareType,DateUTC
2015-08-01 00:03:00,73.0,55.0,30.01,North,0,0.0,0.0,54,-99.99,,,-99.99,,2015-08-01 07:03:00,
2015-08-01 00:12:00,72.0,54.0,30.02,North,0,0.0,1.0,54,-99.99,,,-99.99,,2015-08-01 07:12:00,
2015-08-01 00:23:00,73.0,55.0,30.02,NE,50,2.0,7.0,53,-99.99,,,-99.99,,2015-08-01 07:23:00,
2015-08-01 00:33:00,73.0,54.0,30.02,North,0,0.0,7.0,51,-99.99,,,-99.99,,2015-08-01 07:33:00,
2015-08-01 00:43:00,73.0,55.0,30.02,North,0,0.0,0.0,53,-99.99,,,-99.99,,2015-08-01 07:43:00,
2015-08-01 00:53:00,73.0,55.0,30.02,North,0,0.0,0.0,54,-99.99,,,-99.99,,2015-08-01 07:53:00,
2015-08-01 01:03:00,72.0,54.0,30.02,North,0,0.0,0.0,54,-99.99,,,-99.99,,2015-08-01 08:03:00,
2015-08-01 01:12:00,72.0,54.0,30.02,North,0,0.0,1.0,54,-99.99,,,-99.99,,2015-08-01 08:12:00,
2015-08-01 01:22:00,72.0,54.0,30.02,North,0,0.0,0.0,54,-99.99,,,-99.99,,2015-08-01 08:22:00,
2015-08-01 01:33:00,72.0,54.0,30.02,North,0,0.0,0.0,54,-99.99,,,-99.99,,2015-08-01 08:33:00,
2015-08-01 01:43:00,71.0,54.0,30.02,North,0,0.0,0.0,54,-99.99,,,-99.99,,2015-08-01 08:43:00,
2015-08-01 01:53:00,70.0,54.0,30.02,North,0,0.0,0.0,56,-99.99,,,-99.99,,2015-08-01 08:53:00,
2015-08-01 02:03:00,69.0,53.0,30.03,North,0,0.0,0.0,56,-99.99,,,-99.99,,2015-08-01 09:03:00,
2015-08-01 02:12:00,69.0,53.0,30.03,North,0,0.0,0.0,56,-99.99,,,-99.99,,2015-08-01 09:12:00,
2015-08-01 02:22:00,70.0,54.0,30.02,North,0,0.0,1.0,56,-99.99,,,-99.99,,2015-08-01 09:22:00,
2015-08-01 02:33:00,70.0,53.0,30.03,North,0,0.0,0.0,55,-99.99,,,-99.99,,2015-08-01 09:33:00,
2015-08-01 02:43:00,70.0,53.0,30.03,North,0,0.0,0.0,55,-99.99,,,-99.99,,2015-08-01 09:43:00,
2015-08-01 02:56:00,69.0,53.0,30.02,North,0,0.0,0.0,56,-99.99,,,-99.99,,2015-08-01 09:56:00,
2015-08-01 03:02:00,69.0,53.0,30.02,North,0,0.0,0.0,56,-99.99,,,-99.99,,2015-08-01 10:02:00,
2015-08-01 03:12:00,69.0,53.0,30.02,North,0,0.0,0.0,56,-99.99,,,-99.99,,2015-08-01 10:12:00,
2015-08-01 03:23:00,69.0,53.0,30.03,North,0,0.0,0.0,57,-99.99,,,-99.99,,2015-08-01 10:23:00,
2015-08-01 03:33:00,67.0,52.0,30.03,North,0,0.0,1.0,58,-99.99,,,-99.99,,2015-08-01 10:33:00,
2015-08-01 03:43:00,67.0,52.0,30.03,North,0,0.0,1.0,58,-99.99,,,-99.99,,2015-08-01 10:43:00,
2015-08-01 03:53:00,67.0,52.0,30.01,North,0,0.0,1.0,58,-99.99,,,-99.99,,2015-08-01 10:53:00,
2015-08-01 04:03:00,67.0,53.0,30.01,North,0,0.0,0.0,61,-99.99,,,-99.99,,2015-08-01 11:03:00,
2015-08-01 04:12:00,67.0,53.0,30.01,North,0,0.0,1.0,60,-99.99,,,-99.99,,2015-08-01 11:12:00,
2015-08-01 04:23:00,67.0,53.0,30.01,North,0,0.0,1.0,60,-99.99,,,-99.99,,2015-08-01 11:23:00,
2015-08-01 04:34:00,67.0,53.0,30.01,North,0,0.0,0.0,60,-99.99,,,-99.99,,2015-08-01 11:34:00,
2015-08-01 04:43:00,67.0,53.0,30.01,North,0,0.0,0.0,60,-99.99,,,-99.99,,2015-08-01 11:43:00,
2015-08-01 04:53:00,66.0,52.0,30.01,North,0,0.0,1.0,60,-99.99,,,-99.99,,2015-08-01 11:53:00,
2015-08-01 05:03:00,66.0,52.0,30.01,North,0,0.0,1.0,61,-99.99,,,-99.99,,2015-08-01 12:03:00,
2015-08-01 05:12:00,66.0,53.0,30.02,North,0,0.0,0.0,62,-99.99,,,-99.99,,2015-08-01 12:12:00,
2015-08-01 05:23:00,66.0,52.0,30.01,North,0,0.0,-999.0,61,-99.99,,,-99.99,,2015-08-01 12:23:00,
2015-08-01 05:33:00,65.0,51.0,30.02,North,0,0.0,0.0,61,-99.99,,,-99.99,,2015-08-01 12:33:00,
2015-08-01 05:53:00,65.0,52.0,30.02,North,0,0.0,1.0,63,-99.99,,,-99.99,,2015-08-01 12:53:00,
2015-08-01 06:03:00,65.0,53.0,30.02,North,0,0.0,1.0,64,-99.99,,,-99.99,,2015-08-01 13:03:00,
2015-08-01 06:13:00,64.0,52.0,30.03,North,0,0.0,1.0,64,-99.99,,,-99.99,,2015-08-01 13:13:00,
2015-08-01 06:23:00,65.0,53.0,30.03,North,0,0.0,0.0,64,-99.99,,,-99.99,,2015-08-01 13:23:00,
2015-08-01 06:33:00,65.0,53.0,30.03,North,0,0.0,1.0,64,-99.99,,,-99.99,,2015-08-01 13:33:00,
2015-08-01 06:43:00,65.0,53.0,30.04,North,0,0.0,0.0,65,-99.99,,,-99.99,,2015-08-01 13:43:00,
2015-08-01 06:53:00,65.0,53.0,30.04,North,0,0.0,0.0,65,-99.99,,,-99.99,,2015-08-01 13:53:00,
2015-08-01 07:02:00,65.0,52.0,30.04,North,0,0.0,0.0,63,-99.99,,,-99.99,,2015-08-01 14:02:00,
2015-08-01 07:12:00,65.0,52.0,30.04,North,0,0.0,0.0,63,-99.99,,,-99.99,,2015-08-01 14:12:00,
2015-08-01 07:23:00,65.0,52.0,30.04,North,0,0.0,0.0,63,-99.99,,,-99.99,,2015-08-01 14:23:00,
2015-08-01 07:33:00,67.0,55.0,30.05,North,0,0.0,0.0,65,-99.99,,,-99.99,,2015-08-01 14:33:00,
2015-08-01 07:43:00,69.0,55.0,30.05,North,0,0.0,0.0,62,-99.99,,,-99.99,,2015-08-01 14:43:00,
2015-08-01 07:53:00,71.0,56.0,30.05,North,0,0.0,1.0,60,-99.99,,,-99.99,,2015-08-01 14:53:00,
2015-08-01 08:02:00,74.0,58.0,30.05,North,0,0.0,0.0,57,-99.99,,,-99.99,,2015-08-01 15:02:00,
2015-08-01 08:12:00,74.0,58.0,30.05,North,0,0.0,0.0,57,-99.99,,,-99.99,,2015-08-01 15:12:00,
2015-08-01 08:23:00,77.0,57.0,30.04,North,0,0.0,3.0,50,-99.99,,,-99.99,,2015-08-01 15:23:00,
2015-08-01 08:34:00,78.0,57.0,30.04,North,0,0.0,1.0,48,-99.99,,,-99.99,,2015-08-01 15:34:00,
2015-08-01 08:43:00,79.0,56.0,30.04,North,0,0.0,0.0,46,-99.99,,,-99.99,,2015-08-01 15:43:00,
2015-08-01 08:53:00,81.0,56.0,30.04,North,0,0.0,1.0,43,-99.99,,,-99.99,,2015-08-01 15:53:00,
2015-08-01 09:02:00,82.0,57.0,30.04,North,0,0.0,1.0,42,-99.99,,,-99.99,,2015-08-01 16:02:00,
2015-08-01 09:12:00,83.0,56.0,30.03,North,0,0.0,0.0,40,-99.99,,,-99.99,,2015-08-01 16:12:00,
2015-08-01 09:23:00,84.0,56.0,30.03,NNE,29,1.0,5.0,39,-99.99,,,-99.99,,2015-08-01 16:23:00,
2015-08-01 09:33:00,85.0,56.0,30.03,NW,304,1.0,8.0,37,-99.99,,,-99.99,,2015-08-01 16:33:00,
2015-08-01 09:43:00,86.0,57.0,30.02,North,0,0.0,5.0,37,-99.99,,,-99.99,,2015-08-01 16:43:00,
2015-08-01 09:54:00,87.0,57.0,30.02,North,0,0.0,7.0,36,-99.99,,,-99.99,,2015-08-01 16:54:00,
2015-08-01 10:03:00,87.0,56.0,30.02,West,281,1.0,9.0,35,-99.99,,,-99.99,,2015-08-01 17:03:00,
2015-08-01 10:12:00,88.0,56.0,30.05,North,0,0.0,9.0,34,-99.99,,,-99.99,,2015-08-01 17:12:00,
2015-08-01 10:23:00,89.0,57.0,30.05,West,278,1.0,10.0,34,-99.99,,,-99.99,,2015-08-01 17:23:00,
2015-08-01 10:33:00,91.0,57.0,30.04,West,278,3.0,8.0,32,-99.99,,,-99.99,,2015-08-01 17:33:00,
2015-08-01 10:44:00,90.0,57.0,30.04,West,262,7.0,11.0,33,-99.99,,,-99.99,,2015-08-01 17:44:00,
2015-08-01 10:53:00,90.0,57.0,30.04,West,262,7.0,11.0,33,-99.99,,,-99.99,,2015-08-01 17:53:00,
2015-08-01 11:03:00,91.0,58.0,30.04,West,275,2.0,11.0,33,-99.99,,,-99.99,,2015-08-01 18:03:00,
2015-08-01 11:13:00,92.0,58.0,30.04,North,0,0.0,10.0,32,-99.99,,,-99.99,,2015-08-01 18:13:00,
2015-08-01 11:23:00,92.0,57.0,30.04,North,0,0.0,10.0,31,-99.99,,,-99.99,,2015-08-01 18:23:00,
2015-08-01 11:33:00,92.0,57.0,30.04,North,0,0.0,10.0,31,-99.99,,,-99.99,,2015-08-01 18:33:00,
2015-08-01 11:43:00,92.0,57.0,30.04,North,0,0.0,10.0,31,-99.99,,,-99.99,,2015-08-01 18:43:00,
2015-08-01 11:53:00,93.0,57.0,30.03,West,275,2.0,11.0,30,-99.99,,,-99.99,,2015-08-01 18:53:00,
2015-08-01 12:03:00,93.0,57.0,30.03,West,276,1.0,13.0,30,-99.99,,,-99.99,,2015-08-01 19:03:00,
2015-08-01 12:13:00,93.0,56.0,30.03,West,272,4.0,14.0,29,-99.99,,,-99.99,,2015-08-01 19:13:00,
2015-08-01 12:23:00,93.0,56.0,30.03,West,272,4.0,14.0,29,-99.99,,,-99.99,,2015-08-01 19:23:00,
2015-08-01 12:33:00,94.0,56.0,30.03,West,261,7.0,12.0,28,-99.99,,,-99.99,,2015-08-01 19:33:00,